createdAt,value
2023-08-08T00:00:28.380Z,100738.21
2023-08-08T00:04:28.496Z,100735.82
2023-08-08T00:08:28.425Z,100735.92
2023-08-08T00:12:28.490Z,100726.53
2023-08-08T00:16:28.419Z,100726.0
2023-08-08T00:20:28.660Z,100715.52
2023-08-08T00:24:28.449Z,100713.56
2023-08-08T00:28:28.552Z,100715.45
2023-08-08T00:32:28.541Z,100715.45
2023-08-08T00:36:28.644Z,100705.78
2023-08-08T00:40:28.482Z,100692.94
2023-08-08T00:44:28.659Z,100688.15
2023-08-08T00:48:28.704Z,100688.87
2023-08-08T00:52:28.981Z,100692.47
2023-08-08T00:56:28.580Z,100682.34
2023-08-08T01:00:28.669Z,100683.54000000001
2023-08-08T01:04:28.657Z,100682.79
2023-08-08T01:08:35.676Z,100681.62
2023-08-08T01:12:28.760Z,100674.27
2023-08-08T01:16:29.934Z,100667.19
2023-08-08T01:20:29.427Z,100666.14
2023-08-08T01:24:30.350Z,100674.93
2023-08-08T01:28:28.692Z,100676.53
2023-08-08T01:33:36.526Z,100670.08
2023-08-08T01:36:34.034Z,100665.84
2023-08-08T01:40:29.474Z,100659.38
2023-08-08T01:44:29.618Z,100660.65999999999
2023-08-08T01:48:29.866Z,100668.5
2023-08-08T01:52:28.825Z,100673.58
2023-08-08T01:56:28.858Z,100677.42
2023-08-08T02:00:28.873Z,100675.7
2023-08-08T02:04:29.434Z,100671.29
2023-08-08T02:12:30.129Z,100664.67
2023-08-08T02:16:28.840Z,100667.85
2023-08-08T02:20:29.641Z,100657.58
2023-08-08T02:24:28.814Z,100649.90000000001
2023-08-08T02:28:29.028Z,100647.09
2023-08-08T02:31:45.499Z,100647.09
2023-08-08T02:32:29.047Z,100641.90999999999
2023-08-08T02:36:29.080Z,100646.69
2023-08-08T02:40:28.841Z,100646.92
2023-08-08T02:44:29.151Z,100643.81
2023-08-08T02:48:30.202Z,100640.81
2023-08-08T02:52:29.022Z,100638.49
2023-08-08T02:56:28.893Z,100641.36
2023-08-08T03:00:29.089Z,100645.79
2023-08-08T03:04:38.797Z,100643.14
2023-08-08T03:08:39.004Z,100643.34
2023-08-08T03:12:50.081Z,100638.9
2023-08-08T03:16:29.035Z,100634.01
2023-08-08T03:20:29.204Z,100648.26000000001
2023-08-08T03:24:29.285Z,100652.72
2023-08-08T03:28:29.137Z,100653.44
2023-08-08T03:32:29.203Z,100656.76
2023-08-08T03:36:29.001Z,100649.22
2023-08-08T03:40:30.160Z,100653.02
2023-08-08T03:44:29.007Z,100636.14
2023-08-08T03:48:29.240Z,100637.91
2023-08-08T03:52:29.101Z,100636.11
2023-08-08T03:56:29.349Z,100639.58
2023-08-08T04:00:29.100Z,100640.48
2023-08-08T04:04:29.268Z,100647.86
2023-08-08T04:08:29.696Z,100645.65
2023-08-08T04:12:29.306Z,100645.51
2023-08-08T04:16:29.143Z,100647.14
2023-08-08T04:20:29.218Z,100642.98999999999
2023-08-08T04:24:29.241Z,100642.55
2023-08-08T04:28:29.272Z,100642.88
2023-08-08T04:32:29.190Z,100644.3
2023-08-08T04:36:29.942Z,100636.94
2023-08-08T04:40:29.350Z,100627.91
2023-08-08T04:44:29.373Z,100628.09
2023-08-08T04:48:29.248Z,100626.92
2023-08-08T04:53:10.004Z,100621.36
2023-08-08T04:56:30.598Z,100621.32
2023-08-08T05:00:29.470Z,100628.22
2023-08-08T05:04:31.136Z,100630.38
2023-08-08T05:08:29.503Z,100628.75
2023-08-08T05:12:29.530Z,100627.20000000001
2023-08-08T05:16:29.481Z,100629.96
2023-08-08T05:20:29.425Z,100631.98
2023-08-08T05:24:29.568Z,100632.12
2023-08-08T05:28:29.331Z,100629.43000000001
2023-08-08T05:32:29.556Z,100621.66
2023-08-08T05:40:29.623Z,100622.79
2023-08-08T05:48:29.585Z,100610.13
2023-08-08T05:52:29.437Z,100613.33
2023-08-08T05:56:35.338Z,100610.55
2023-08-08T06:00:30.194Z,100611.5
2023-08-08T06:04:30.078Z,100623.47
2023-08-08T06:08:29.710Z,100630.0
2023-08-08T06:12:29.654Z,100624.25
2023-08-08T06:16:29.715Z,100629.72
2023-08-08T06:20:29.897Z,100622.91
2023-08-08T06:24:29.489Z,100617.72
2023-08-08T06:28:30.694Z,100617.02
2023-08-08T06:32:29.512Z,100620.76
2023-08-08T06:36:29.555Z,100617.3
2023-08-08T06:40:29.523Z,100621.53
2023-08-08T06:44:32.712Z,100628.48
2023-08-08T06:48:29.546Z,100622.41
2023-08-08T06:52:29.654Z,100623.49
2023-08-08T06:56:29.857Z,100623.27
2023-08-08T07:00:30.160Z,100614.5
2023-08-08T07:04:29.725Z,100614.92
2023-08-08T07:08:29.793Z,100611.85
2023-08-08T07:12:29.641Z,100614.98
2023-08-08T07:16:29.954Z,100615.85
2023-08-08T07:20:29.655Z,100617.11
2023-08-08T07:24:29.731Z,100615.44
2023-08-08T07:28:29.784Z,100616.09
2023-08-08T07:32:30.927Z,100609.88
2023-08-08T07:36:30.306Z,100602.34
2023-08-08T07:44:32.042Z,100610.29999999999
2023-08-08T07:48:30.059Z,100604.17
2023-08-08T07:52:29.967Z,100598.05
2023-08-08T08:00:30.610Z,100594.5
2023-08-08T08:06:51.948Z,100591.61
2023-08-08T08:10:51.807Z,100592.74
2023-08-08T08:14:51.914Z,100593.03
2023-08-08T08:18:51.809Z,100587.76000000001
2023-08-08T08:22:51.929Z,100593.15000000001
2023-08-08T08:26:52.150Z,100592.56
2023-08-08T08:30:52.010Z,100588.79
2023-08-08T08:34:51.991Z,100594.82
2023-08-08T08:38:52.216Z,100583.14
2023-08-08T08:42:52.183Z,100582.78
2023-08-08T08:46:53.175Z,100583.91
2023-08-08T08:50:53.311Z,100581.75
2023-08-08T08:54:53.127Z,100580.22
2023-08-08T08:58:52.029Z,100578.68999999999
2023-08-08T09:02:52.454Z,100580.17
2023-08-08T09:06:52.555Z,100580.02
2023-08-08T09:10:52.206Z,100578.62
2023-08-08T09:14:55.326Z,100576.06
2023-08-08T09:18:52.305Z,100566.13
2023-08-08T09:26:52.235Z,100568.8
2023-08-08T09:30:53.605Z,100569.53
2023-08-08T09:34:52.083Z,100568.89
2023-08-08T09:38:53.031Z,100570.79
2023-08-08T09:42:52.944Z,100564.62
2023-08-08T09:46:52.311Z,100559.09
2023-08-08T09:50:52.300Z,100561.36
2023-08-08T09:54:52.608Z,100560.40000000001
2023-08-08T09:58:52.402Z,100560.86
2023-08-08T10:02:52.341Z,100564.37
2023-08-08T10:06:52.180Z,100559.54000000001
2023-08-08T10:10:53.014Z,100561.55
2023-08-08T10:14:52.783Z,100550.93000000001
2023-08-08T10:18:56.405Z,100547.06
2023-08-08T10:22:55.468Z,100550.33
2023-08-08T10:26:53.423Z,100545.06
2023-08-08T10:30:53.710Z,100536.43
2023-08-08T10:34:56.752Z,100539.31
2023-08-08T10:38:52.671Z,100542.78
2023-08-08T10:46:53.791Z,100540.58
2023-08-08T10:50:54.612Z,100550.53
2023-08-08T10:54:53.376Z,100553.54999999999
2023-08-08T10:58:52.270Z,100546.45000000001
2023-08-08T11:02:54.708Z,100549.13
2023-08-08T11:06:53.141Z,100543.52
2023-08-08T11:14:52.456Z,100543.78
2023-08-08T11:18:55.394Z,100539.9
2023-08-08T11:22:53.430Z,100534.61
2023-08-08T11:26:58.882Z,100531.09
2023-08-08T11:30:52.647Z,100533.73
2023-08-08T11:34:52.446Z,100536.8
2023-08-08T11:38:53.752Z,100533.83
2023-08-08T11:42:53.852Z,100535.97
2023-08-08T11:46:52.835Z,100522.91
2023-08-08T11:50:52.877Z,100513.61
2023-08-08T11:54:52.559Z,100515.88
2023-08-08T11:58:52.536Z,100508.37
2023-08-08T12:02:53.067Z,100511.1
2023-08-08T12:10:54.687Z,100506.12999999999
2023-08-08T12:18:53.881Z,100497.06999999999
2023-08-08T12:22:52.694Z,100493.0
2023-08-08T12:26:52.896Z,100491.13
2023-08-08T12:30:52.717Z,100488.79
2023-08-08T12:34:52.814Z,100487.06
2023-08-08T12:38:52.666Z,100484.33
2023-08-08T12:42:52.730Z,100471.01
2023-08-08T12:46:52.713Z,100474.7
2023-08-08T12:50:53.016Z,100472.05
2023-08-08T12:58:52.715Z,100465.48
2023-08-08T13:02:52.720Z,100464.34000000001
2023-08-08T13:06:52.812Z,100463.51
2023-08-08T13:10:53.002Z,100460.78
2023-08-08T13:14:52.833Z,100452.36
2023-08-08T13:18:52.648Z,100446.47
2023-08-08T13:26:52.894Z,100432.75
2023-08-08T13:30:53.599Z,100434.87
2023-08-08T13:34:53.047Z,100425.45
2023-08-08T13:38:55.091Z,100414.01
2023-08-08T13:42:53.550Z,100414.70000000001
2023-08-08T13:46:52.795Z,100417.14
2023-08-08T13:50:53.074Z,100414.04
2023-08-08T13:54:52.755Z,100411.23999999999
2023-08-08T13:58:52.906Z,100406.34
2023-08-08T14:02:52.892Z,100409.17
2023-08-08T14:06:52.859Z,100404.53
2023-08-08T14:10:52.823Z,100403.77
2023-08-08T14:14:52.926Z,100407.79
2023-08-08T14:18:52.994Z,100397.69
2023-08-08T14:22:53.019Z,100401.2
2023-08-08T14:26:52.831Z,100398.73999999999
2023-08-08T14:30:52.913Z,100395.06
2023-08-08T14:35:14.685Z,100400.25
2023-08-08T14:38:53.111Z,100394.56999999999
2023-08-08T14:42:56.215Z,100386.8
2023-08-08T14:46:53.000Z,100389.37
2023-08-08T14:50:53.171Z,100380.95
2023-08-08T14:54:53.236Z,100376.25
2023-08-08T14:58:52.942Z,100373.86
2023-08-08T15:02:53.158Z,100370.23000000001
2023-08-08T15:06:53.035Z,100366.39
2023-08-08T15:10:53.153Z,100360.29
2023-08-08T15:14:52.996Z,100354.58
2023-08-08T15:19:02.108Z,100358.84999999999
2023-08-08T15:22:53.028Z,100361.84
2023-08-08T15:26:53.108Z,100362.86
2023-08-08T15:30:53.220Z,100361.35
2023-08-08T15:34:53.158Z,100354.89
2023-08-08T15:38:53.118Z,100350.64
2023-08-08T15:42:53.164Z,100348.1
2023-08-08T15:46:53.131Z,100342.66
2023-08-08T15:50:53.603Z,100339.23
2023-08-08T15:58:53.183Z,100336.56
2023-08-08T16:02:53.268Z,100335.24
2023-08-08T16:06:53.301Z,100336.56
2023-08-08T16:14:53.334Z,100332.32
2023-08-08T16:18:53.189Z,100327.47
2023-08-08T16:22:54.012Z,100325.98000000001
2023-08-08T16:26:53.361Z,100323.03
2023-08-08T16:30:53.320Z,100326.87
2023-08-08T16:34:53.392Z,100329.24
2023-08-08T16:38:55.400Z,100329.11
2023-08-08T16:46:53.462Z,100323.38
2023-08-08T16:50:54.614Z,100322.45
2023-08-08T16:54:54.947Z,100323.25
2023-08-08T16:58:53.563Z,100317.92
2023-08-08T17:02:53.518Z,100314.9
2023-08-08T17:06:53.705Z,100317.08
2023-08-08T17:14:55.607Z,100314.53
2023-08-08T17:18:53.350Z,100315.91
2023-08-08T17:22:53.506Z,100335.13
2023-08-08T17:26:53.360Z,100336.08
2023-08-08T17:30:54.079Z,100341.56
2023-08-08T17:34:53.463Z,100334.12
2023-08-08T17:38:53.480Z,100328.59999999999
2023-08-08T17:42:53.404Z,100322.05
2023-08-08T17:46:53.651Z,100323.67
2023-08-08T17:50:54.031Z,100323.71
2023-08-08T17:54:53.595Z,100321.82
2023-08-08T17:58:53.486Z,100321.82
2023-08-08T18:06:01.823Z,100339.04
2023-08-08T18:06:53.536Z,100329.3
2023-08-08T18:10:53.519Z,100323.35
2023-08-08T18:14:53.571Z,100320.39
2023-08-08T18:18:53.541Z,100334.74
2023-08-08T18:22:53.596Z,100347.47
2023-08-08T18:26:53.642Z,100355.39
2023-08-08T18:30:54.488Z,100347.91
2023-08-08T18:34:54.583Z,100349.44
2023-08-08T18:38:54.639Z,100357.19
2023-08-08T18:42:54.481Z,100364.64
2023-08-08T18:46:54.038Z,100353.88
2023-08-08T18:50:53.772Z,100363.4
2023-08-08T18:54:53.733Z,100362.81
2023-08-08T18:58:53.699Z,100370.59000000001
2023-08-08T19:02:53.884Z,100369.54
2023-08-08T19:06:53.666Z,100373.75
2023-08-08T19:10:53.728Z,100367.72
2023-08-08T19:14:53.718Z,100362.45
2023-08-08T19:18:53.818Z,100355.97
2023-08-08T19:22:53.860Z,100352.42
2023-08-08T19:26:54.426Z,100352.01
2023-08-08T19:30:54.222Z,100362.5
2023-08-08T19:34:53.891Z,100361.28
2023-08-08T19:38:53.737Z,100362.23
2023-08-08T19:42:54.545Z,100366.92
2023-08-08T19:46:55.066Z,100369.06
2023-08-08T19:54:54.074Z,100371.83
2023-08-08T20:02:54.395Z,100375.8
2023-08-08T20:06:53.997Z,100376.81
2023-08-08T20:10:53.973Z,100379.66
2023-08-08T20:14:53.915Z,100388.06
2023-08-08T20:18:53.961Z,100391.99
2023-08-08T20:22:53.868Z,100388.31
2023-08-08T20:26:54.645Z,100379.6
2023-08-08T20:30:54.228Z,100390.88
2023-08-08T20:34:53.963Z,100393.89
2023-08-08T20:38:54.243Z,100397.06
2023-08-08T20:42:55.719Z,100396.69
2023-08-08T20:46:54.223Z,100399.72
2023-08-08T20:50:54.050Z,100404.11
2023-08-08T20:54:54.044Z,100409.56
2023-08-08T20:58:54.142Z,100413.11
2023-08-08T21:02:54.125Z,100414.9
2023-08-08T21:06:54.171Z,100412.48000000001
2023-08-08T21:10:53.992Z,100416.08
2023-08-08T21:14:54.284Z,100419.4
2023-08-08T21:18:54.013Z,100424.2
2023-08-08T21:22:54.198Z,100420.95000000001
2023-08-08T21:26:54.090Z,100416.6
2023-08-08T21:30:54.247Z,100412.13
2023-08-08T21:34:54.283Z,100422.19
2023-08-08T21:38:54.330Z,100424.69
2023-08-08T21:42:54.334Z,100421.23
2023-08-08T21:46:54.264Z,100425.81
2023-08-08T21:50:54.129Z,100429.83
2023-08-08T21:54:54.446Z,100437.62000000001
2023-08-08T21:58:54.145Z,100448.61
2023-08-08T22:02:54.346Z,100451.78
2023-08-08T22:06:54.264Z,100459.61
2023-08-08T22:10:54.381Z,100455.64
2023-08-08T22:14:54.934Z,100465.97
2023-08-08T22:18:54.477Z,100448.14
2023-08-08T22:22:55.898Z,100446.01
2023-08-08T22:26:54.341Z,100444.53
2023-08-08T22:30:54.237Z,100437.67
2023-08-08T22:34:55.053Z,100443.94
2023-08-08T22:42:54.462Z,100450.85
2023-08-08T22:46:54.286Z,100456.75
2023-08-08T22:50:54.468Z,100459.58
2023-08-08T22:54:55.868Z,100455.44
2023-08-08T22:58:54.417Z,100454.26999999999
2023-08-08T23:02:54.446Z,100463.48000000001
2023-08-08T23:10:55.504Z,100479.42
2023-08-08T23:14:54.436Z,100481.45
2023-08-08T23:18:54.443Z,100488.69
2023-08-08T23:22:54.379Z,100493.66
2023-08-08T23:26:55.541Z,100496.73
2023-08-08T23:38:54.642Z,100498.78
2023-08-08T23:42:54.720Z,100500.27
2023-08-08T23:46:54.698Z,100500.23999999999
2023-08-08T23:50:54.553Z,100505.8
2023-08-08T23:58:54.650Z,100512.86
